Time,TemperatureF,DewpointF,PressureIn,WindDirection,WindDirectionDegrees,WindSpeedMPH,WindSpeedGustMPH,Humidity,HourlyPrecipIn,Conditions,Clouds,dailyrainin,SoftwareType,DateUTC
2013-01-26 00:10:00,-11.2,-15.0,30.44,NNW,342,0.0,0.0,84,0.00,,,0.00,weatherlink.com 1.10,2013-01-26 06:10:00,
2013-01-26 00:25:00,-11.5,-15.0,30.45,NNW,342,0.0,0.0,83,0.00,,,0.00,weatherlink.com 1.10,2013-01-26 06:25:00,
2013-01-26 00:40:00,-11.8,-15.0,30.46,NNW,342,0.0,0.0,84,0.00,,,0.00,weatherlink.com 1.10,2013-01-26 06:40:00,
2013-01-26 00:55:00,-12.0,-16.0,30.45,NNW,342,0.0,0.0,84,0.00,,,0.00,weatherlink.com 1.10,2013-01-26 06:55:00,
2013-01-26 01:10:00,-12.0,-16.0,30.45,NNW,342,0.0,0.0,84,0.00,,,0.00,weatherlink.com 1.10,2013-01-26 07:10:00,
2013-01-26 01:25:00,-12.4,-16.0,30.45,NNW,342,0.0,0.0,83,0.00,,,0.00,weatherlink.com 1.10,2013-01-26 07:25:00,
2013-01-26 01:40:00,-12.7,-16.0,30.44,NNW,342,0.0,0.0,83,0.00,,,0.00,weatherlink.com 1.10,2013-01-26 07:40:00,
2013-01-26 01:55:00,-12.8,-17.0,30.44,NNW,342,0.0,0.0,83,0.00,,,0.00,weatherlink.com 1.10,2013-01-26 07:55:00,
2013-01-26 02:10:00,-13.1,-17.0,30.44,NNW,342,0.0,0.0,83,0.00,,,0.00,weatherlink.com 1.10,2013-01-26 08:10:00,
2013-01-26 02:25:00,-13.2,-17.0,30.44,NNW,342,0.0,0.0,83,0.00,,,0.00,weatherlink.com 1.10,2013-01-26 08:25:00,
2013-01-26 02:41:00,-13.6,-17.0,30.44,NNW,342,0.0,0.0,83,0.00,,,0.00,weatherlink.com 1.10,2013-01-26 08:41:00,
2013-01-26 02:55:00,-13.9,-18.0,30.43,NNW,342,0.0,0.0,83,0.00,,,0.00,weatherlink.com 1.10,2013-01-26 08:55:00,
2013-01-26 03:10:00,-14.2,-18.0,30.43,NNW,342,0.0,0.0,82,0.00,,,0.00,weatherlink.com 1.10,2013-01-26 09:10:00,
2013-01-26 03:26:00,-14.5,-18.0,30.44,NNW,342,0.0,0.0,82,0.00,,,0.00,weatherlink.com 1.10,2013-01-26 09:26:00,
2013-01-26 03:41:00,-14.9,-19.0,30.44,NNW,342,0.0,0.0,82,0.00,,,0.00,weatherlink.com 1.10,2013-01-26 09:41:00,
2013-01-26 03:56:00,-15.1,-19.0,30.43,NNW,342,0.0,0.0,82,0.00,,,0.00,weatherlink.com 1.10,2013-01-26 09:56:00,
2013-01-26 04:11:00,-15.2,-19.0,30.44,NNW,342,0.0,0.0,82,0.00,,,0.00,weatherlink.com 1.10,2013-01-26 10:11:00,
2013-01-26 04:26:00,-15.2,-19.0,30.42,NNW,342,0.0,0.0,83,0.00,,,0.00,weatherlink.com 1.10,2013-01-26 10:26:00,
2013-01-26 04:41:00,-14.7,-18.0,30.41,NNW,342,0.0,0.0,84,0.00,,,0.00,weatherlink.com 1.10,2013-01-26 10:41:00,
2013-01-26 04:56:00,-14.2,-18.0,30.42,NNW,342,0.0,0.0,84,0.00,,,0.00,weatherlink.com 1.10,2013-01-26 10:56:00,
2013-01-26 05:11:00,-13.8,-18.0,30.42,NNW,342,0.0,1.0,83,0.00,,,0.00,weatherlink.com 1.10,2013-01-26 11:11:00,
2013-01-26 05:27:00,-14.0,-18.0,30.43,NNW,342,0.0,0.0,83,0.00,,,0.00,weatherlink.com 1.10,2013-01-26 11:27:00,
2013-01-26 05:41:00,-14.1,-18.0,30.42,NNW,342,0.0,0.0,83,0.00,,,0.00,weatherlink.com 1.10,2013-01-26 11:41:00,
2013-01-26 05:56:00,-14.4,-18.0,30.43,NNW,342,0.0,0.0,82,0.00,,,0.00,weatherlink.com 1.10,2013-01-26 11:56:00,
2013-01-26 06:12:00,-14.1,-18.0,30.44,NNW,342,0.0,0.0,84,0.00,,,0.00,weatherlink.com 1.10,2013-01-26 12:12:00,
2013-01-26 06:27:00,-13.9,-18.0,30.44,NNW,342,0.0,0.0,83,0.00,,,0.00,weatherlink.com 1.10,2013-01-26 12:27:00,
2013-01-26 06:42:00,-14.0,-18.0,30.45,NNW,342,0.0,0.0,83,0.00,,,0.00,weatherlink.com 1.10,2013-01-26 12:42:00,
2013-01-26 06:57:00,-14.2,-18.0,30.46,NNW,342,0.0,0.0,82,0.00,,,0.00,weatherlink.com 1.10,2013-01-26 12:57:00,
2013-01-26 07:12:00,-14.4,-18.0,30.46,NNW,342,0.0,0.0,83,0.00,,,0.00,weatherlink.com 1.10,2013-01-26 13:12:00,
2013-01-26 07:27:00,-14.5,-18.0,30.45,NNW,342,0.0,0.0,83,0.00,,,0.00,weatherlink.com 1.10,2013-01-26 13:27:00,
2013-01-26 07:42:00,-14.3,-18.0,30.44,NNW,342,0.0,1.0,83,0.00,,,0.00,weatherlink.com 1.10,2013-01-26 13:42:00,
2013-01-26 07:57:00,-14.2,-18.0,30.46,NNW,342,0.0,1.0,83,0.00,,,0.00,weatherlink.com 1.10,2013-01-26 13:57:00,
2013-01-26 08:12:00,-13.8,-18.0,30.45,NNW,342,0.0,0.0,83,0.00,,,0.00,weatherlink.com 1.10,2013-01-26 14:12:00,
2013-01-26 08:27:00,-11.6,-14.0,30.45,NNW,342,0.0,1.0,87,0.00,,,0.00,weatherlink.com 1.10,2013-01-26 14:27:00,
2013-01-26 08:42:00,-9.0,-11.0,30.44,NNW,342,0.0,1.0,89,0.00,,,0.00,weatherlink.com 1.10,2013-01-26 14:42:00,
2013-01-26 08:57:00,-6.2,-9.0,30.44,NNW,342,0.0,0.0,89,0.00,,,0.00,weatherlink.com 1.10,2013-01-26 14:57:00,
2013-01-26 09:13:00,-3.4,-6.0,30.45,NW,323,1.0,2.0,89,0.00,,,0.00,weatherlink.com 1.10,2013-01-26 15:13:00,
2013-01-26 09:27:00,-1.9,-5.0,30.46,SSE,156,2.0,3.0,87,0.00,,,0.00,weatherlink.com 1.10,2013-01-26 15:27:00,
2013-01-26 09:44:00,-1.6,-5.0,30.45,SSE,150,1.0,3.0,86,0.00,,,0.00,weatherlink.com 1.10,2013-01-26 15:44:00,
2013-01-26 09:57:00,-0.6,-4.0,30.45,SSE,147,4.0,4.0,87,0.00,,,0.00,weatherlink.com 1.10,2013-01-26 15:57:00,
2013-01-26 10:13:00,0.4,-3.0,30.46,SE,146,2.0,4.0,87,0.00,,,0.00,weatherlink.com 1.10,2013-01-26 16:13:00,
2013-01-26 10:28:00,1.2,-2.0,30.45,SE,142,1.0,4.0,86,0.00,,,0.00,weatherlink.com 1.10,2013-01-26 16:28:00,
2013-01-26 10:43:00,2.1,-1.0,30.45,South,171,2.0,5.0,86,0.00,,,0.00,weatherlink.com 1.10,2013-01-26 16:43:00,
2013-01-26 10:58:00,2.8,-1.0,30.45,SE,125,3.0,5.0,84,0.00,,,0.00,weatherlink.com 1.10,2013-01-26 16:58:00,
2013-01-26 11:13:00,3.4,0.0,30.44,SE,132,4.0,4.0,84,0.00,,,0.00,weatherlink.com 1.10,2013-01-26 17:13:00,
2013-01-26 11:28:00,4.2,0.0,30.43,SE,140,2.0,7.0,83,0.00,,,0.00,weatherlink.com 1.10,2013-01-26 17:28:00,
2013-01-26 11:43:00,5.0,0.0,30.43,SSE,153,5.0,7.0,81,0.00,,,0.00,weatherlink.com 1.10,2013-01-26 17:43:00,
2013-01-26 11:58:00,5.8,1.0,30.43,SE,141,3.0,5.0,81,0.00,,,0.00,weatherlink.com 1.10,2013-01-26 17:58:00,
2013-01-26 12:13:00,6.5,1.0,30.42,SE,142,3.0,5.0,79,0.00,,,0.00,weatherlink.com 1.10,2013-01-26 18:13:00,
2013-01-26 12:28:00,6.8,1.0,30.42,SSE,153,2.0,7.0,78,0.00,,,0.00,weatherlink.com 1.10,2013-01-26 18:28:00,
2013-01-26 12:44:00,7.3,2.0,30.41,SE,138,3.0,6.0,77,0.00,,,0.00,weatherlink.com 1.10,2013-01-26 18:44:00,
2013-01-26 12:58:00,7.5,2.0,30.39,SE,132,4.0,8.0,77,0.00,,,0.00,weatherlink.com 1.10,2013-01-26 18:58:00,
2013-01-26 13:13:00,7.7,2.0,30.38,SE,135,1.0,5.0,77,0.00,,,0.00,weatherlink.com 1.10,2013-01-26 19:13:00,
2013-01-26 13:29:00,8.0,2.0,30.38,SE,143,3.0,8.0,76,0.00,,,0.00,weatherlink.com 1.10,2013-01-26 19:29:00,
2013-01-26 13:44:00,8.8,2.0,30.38,SE,138,5.0,8.0,75,0.00,,,0.00,weatherlink.com 1.10,2013-01-26 19:44:00,
2013-01-26 13:59:00,9.5,3.0,30.37,SE,145,4.0,8.0,74,0.00,,,0.00,weatherlink.com 1.10,2013-01-26 19:59:00,
2013-01-26 14:14:00,9.9,3.0,30.36,SE,146,1.0,9.0,74,0.00,,,0.00,weatherlink.com 1.10,2013-01-26 20:14:00,
2013-01-26 14:29:00,10.1,3.0,30.36,SSE,147,3.0,8.0,73,0.00,,,0.00,weatherlink.com 1.10,2013-01-26 20:29:00,
2013-01-26 14:44:00,10.8,3.0,30.36,SSE,155,4.0,8.0,71,0.00,,,0.00,weatherlink.com 1.10,2013-01-26 20:44:00,
2013-01-26 14:59:00,11.1,3.0,30.35,SE,142,5.0,9.0,70,0.00,,,0.00,weatherlink.com 1.10,2013-01-26 20:59:00,
2013-01-26 15:14:00,11.9,4.0,30.34,South,173,2.0,9.0,71,0.00,,,0.00,weatherlink.com 1.10,2013-01-26 21:14:00,
2013-01-26 15:29:00,11.7,3.0,30.34,SE,132,4.0,9.0,69,0.00,,,0.00,weatherlink.com 1.10,2013-01-26 21:29:00,
2013-01-26 15:44:00,11.8,3.0,30.33,SE,140,5.0,7.0,69,0.00,,,0.00,weatherlink.com 1.10,2013-01-26 21:44:00,
2013-01-26 15:59:00,12.0,3.0,30.32,SSE,166,6.0,8.0,68,0.00,,,0.00,weatherlink.com 1.10,2013-01-26 21:59:00,
2013-01-26 16:14:00,12.2,4.0,30.32,SSE,158,5.0,8.0,68,0.00,,,0.00,weatherlink.com 1.10,2013-01-26 22:14:00,
2013-01-26 16:29:00,12.3,4.0,30.32,SE,144,4.0,6.0,69,0.00,,,0.00,weatherlink.com 1.10,2013-01-26 22:29:00,
2013-01-26 16:44:00,12.4,4.0,30.31,SSE,150,2.0,8.0,68,0.00,,,0.00,weatherlink.com 1.10,2013-01-26 22:44:00,
2013-01-26 17:00:00,12.3,3.0,30.30,SSE,148,3.0,9.0,67,0.00,,,0.00,weatherlink.com 1.10,2013-01-26 23:00:00,
2013-01-26 17:15:00,12.2,3.0,30.31,SSE,152,2.0,6.0,67,0.00,,,0.00,weatherlink.com 1.10,2013-01-26 23:15:00,
2013-01-26 17:30:00,12.2,3.0,30.30,SE,131,2.0,8.0,67,0.00,,,0.00,weatherlink.com 1.10,2013-01-26 23:30:00,
2013-01-26 17:45:00,12.1,3.0,30.30,SE,134,5.0,8.0,67,0.00,,,0.00,weatherlink.com 1.10,2013-01-26 23:45:00,
2013-01-26 18:00:00,12.0,3.0,30.30,SE,145,3.0,7.0,67,0.00,,,0.00,weatherlink.com 1.10,2013-01-27 00:00:00,
2013-01-26 18:15:00,12.1,3.0,30.30,SE,140,2.0,7.0,67,0.00,,,0.00,weatherlink.com 1.10,2013-01-27 00:15:00,
2013-01-26 18:30:00,12.0,3.0,30.30,SSE,149,3.0,6.0,67,0.00,,,0.00,weatherlink.com 1.10,2013-01-27 00:30:00,
2013-01-26 18:45:00,11.8,3.0,30.30,SSE,150,2.0,9.0,68,0.00,,,0.00,weatherlink.com 1.10,2013-01-27 00:45:00,
2013-01-26 19:00:00,12.1,3.0,30.30,SE,131,5.0,7.0,68,0.00,,,0.00,weatherlink.com 1.10,2013-01-27 01:00:00,
2013-01-26 19:15:00,12.1,4.0,30.29,SE,141,3.0,7.0,69,0.00,,,0.00,weatherlink.com 1.10,2013-01-27 01:15:00,
2013-01-26 19:31:00,11.9,4.0,30.29,South,179,3.0,8.0,69,0.00,,,0.00,weatherlink.com 1.10,2013-01-27 01:31:00,
2013-01-26 19:45:00,11.8,4.0,30.30,SSE,147,2.0,8.0,70,0.00,,,0.00,weatherlink.com 1.10,2013-01-27 01:45:00,
2013-01-26 20:00:00,11.6,4.0,30.30,SSE,159,2.0,6.0,71,0.00,,,0.00,weatherlink.com 1.10,2013-01-27 02:00:00,
2013-01-26 20:16:00,11.3,4.0,30.30,South,186,3.0,6.0,71,0.00,,,0.00,weatherlink.com 1.10,2013-01-27 02:16:00,
2013-01-26 20:31:00,11.3,4.0,30.29,SE,142,3.0,6.0,71,0.00,,,0.00,weatherlink.com 1.10,2013-01-27 02:31:00,
2013-01-26 20:46:00,11.1,4.0,30.30,SSE,152,0.0,4.0,72,0.00,,,0.00,weatherlink.com 1.10,2013-01-27 02:46:00,
2013-01-26 21:01:00,10.8,4.0,30.30,SE,144,1.0,4.0,73,0.00,,,0.00,weatherlink.com 1.10,2013-01-27 03:01:00,
2013-01-26 21:16:00,10.7,4.0,30.29,SE,142,1.0,4.0,73,0.00,,,0.00,weatherlink.com 1.10,2013-01-27 03:16:00,
2013-01-26 21:31:00,10.6,4.0,30.29,SE,131,3.0,4.0,73,0.00,,,0.00,weatherlink.com 1.10,2013-01-27 03:31:00,
2013-01-26 21:46:00,10.6,4.0,30.28,SE,146,1.0,5.0,74,0.00,,,0.00,weatherlink.com 1.10,2013-01-27 03:46:00,
2013-01-26 22:01:00,10.4,4.0,30.28,SSE,148,1.0,4.0,74,0.00,,,0.00,weatherlink.com 1.10,2013-01-27 04:01:00,
2013-01-26 22:16:00,10.4,4.0,30.28,SE,140,2.0,4.0,74,0.00,,,0.00,weatherlink.com 1.10,2013-01-27 04:16:00,
2013-01-26 22:32:00,10.3,4.0,30.27,SE,126,1.0,4.0,74,0.00,,,0.00,weatherlink.com 1.10,2013-01-27 04:32:00,
2013-01-26 22:47:00,9.9,4.0,30.27,ESE,116,0.0,2.0,75,0.00,,,0.00,weatherlink.com 1.10,2013-01-27 04:47:00,
2013-01-26 23:01:00,9.5,3.0,30.27,SE,138,0.0,2.0,76,0.00,,,0.00,weatherlink.com 1.10,2013-01-27 05:01:00,
2013-01-26 23:16:00,9.0,3.0,30.27,SSE,147,0.0,3.0,78,0.00,,,0.00,weatherlink.com 1.10,2013-01-27 05:16:00,
2013-01-26 23:31:00,8.8,3.0,30.27,ENE,69,0.0,3.0,78,0.00,,,0.00,weatherlink.com 1.10,2013-01-27 05:31:00,
2013-01-26 23:47:00,8.1,3.0,30.26,ENE,69,1.0,1.0,79,0.00,,,0.00,weatherlink.com 1.10,2013-01-27 05:47:00,